Time;durP1;ratioP1;P1;durP2;ratioP2;P2;SDS_P1;SDS_P2;PMS_P1;PMS_P2;Temp;Humidity;BMP_temperature;BMP_pressure;BME280_temperature;BME280_humidity;BME280_pressure;Samples;Min_cycle;Max_cycle;Signal;HPM_P1;HPM_P2
2022/10/16 00:00:41;;;;;;;31.08;19.88;;;13.20;99.90;;;;;;10407388;28;20057;-79
2022/10/16 00:05:43;;;;;;;33.17;21.05;;;13.20;99.90;;;;;;10402010;28;20593;-82
2022/10/16 00:10:44;;;;;;;33.10;22.48;;;13.20;99.90;;;;;;10402081;28;20034;-78
2022/10/16 00:15:46;;;;;;;35.63;23.05;;;13.20;99.90;;;;;;10389569;28;20037;-79
2022/10/16 00:20:46;;;;;;;40.63;24.55;;;13.20;99.90;;;;;;10400931;28;20113;-80
2022/10/16 00:25:58;;;;;;;33.33;22.92;;;13.20;99.90;;;;;;10408156;28;20059;-82
2022/10/16 00:31:07;;;;;;;37.50;22.83;;;13.20;99.90;;;;;;10405107;28;20052;-78
2022/10/16 00:36:11;;;;;;;39.20;24.77;;;13.20;99.90;;;;;;10393755;28;20040;-78
2022/10/16 00:41:15;;;;;;;35.42;23.30;;;13.20;99.90;;;;;;10408018;28;20893;-82
2022/10/16 00:46:23;;;;;;;39.28;24.92;;;13.10;99.90;;;;;;10406002;28;20033;-79
2022/10/16 00:51:32;;;;;;;40.95;26.42;;;13.00;99.90;;;;;;10404401;28;20045;-79
2022/10/16 00:56:33;;;;;;;42.28;25.95;;;12.90;99.90;;;;;;10406947;28;20043;-79
2022/10/16 01:01:34;;;;;;;39.40;24.33;;;12.80;99.90;;;;;;10400557;28;20032;-81
2022/10/16 01:07:07;;;;;;;42.03;24.63;;;12.70;99.90;;;;;;10406332;28;20085;-81
2022/10/16 01:12:26;;;;;;;44.22;27.60;;;12.60;99.90;;;;;;10407038;28;20103;-79
2022/10/16 01:17:53;;;;;;;48.90;28.52;;;12.50;99.90;;;;;;10400790;28;20035;-81
2022/10/16 01:23:05;;;;;;;51.47;29.13;;;12.40;99.90;;;;;;10404890;28;20065;-78
2022/10/16 01:28:11;;;;;;;41.22;25.40;;;12.20;99.90;;;;;;10406814;28;20041;-79
2022/10/16 01:33:21;;;;;;;41.47;25.52;;;12.10;99.90;;;;;;10394096;28;20124;-78
2022/10/16 01:38:27;;;;;;;35.80;22.20;;;11.90;99.90;;;;;;10404076;28;20475;-78
2022/10/16 01:43:36;;;;;;;33.78;20.67;;;11.80;99.90;;;;;;10395984;28;20026;-79
2022/10/16 01:48:37;;;;;;;40.60;23.42;;;11.70;99.90;;;;;;10402951;28;20076;-78
2022/10/16 01:53:40;;;;;;;38.53;22.55;;;11.60;99.90;;;;;;10405512;28;20116;-79
2022/10/16 01:58:46;;;;;;;37.40;23.88;;;11.50;99.90;;;;;;10403802;28;20552;-79
2022/10/16 02:03:51;;;;;;;37.20;23.27;;;11.50;99.90;;;;;;10397198;28;20551;-83
2022/10/16 02:08:53;;;;;;;41.60;27.35;;;11.40;99.90;;;;;;10387505;28;20492;-79
2022/10/16 02:14:00;;;;;;;44.10;24.50;;;11.30;99.90;;;;;;10396004;28;20065;-79
2022/10/16 02:19:01;;;;;;;35.78;22.35;;;11.30;99.90;;;;;;10404001;28;20032;-79
2022/10/16 02:24:13;;;;;;;35.58;23.95;;;11.30;99.90;;;;;;10396902;28;20037;-81
2022/10/16 02:29:16;;;;;;;35.67;22.13;;;11.20;99.90;;;;;;10403114;28;20025;-80
2022/10/16 02:34:20;;;;;;;35.63;22.42;;;11.20;99.90;;;;;;10401464;28;20030;-78
2022/10/16 02:39:21;;;;;;;35.45;22.95;;;11.10;99.90;;;;;;10403094;28;20037;-80
2022/10/16 02:44:22;;;;;;;33.35;20.17;;;11.00;99.90;;;;;;10403665;28;20025;-79
2022/10/16 02:49:23;;;;;;;37.25;22.63;;;11.00;99.90;;;;;;10403510;28;20041;-79
2022/10/16 02:54:23;;;;;;;43.92;25.20;;;10.90;99.90;;;;;;10402685;28;20037;-80
2022/10/16 02:59:24;;;;;;;48.33;28.38;;;10.80;99.90;;;;;;10403001;28;20127;-78
2022/10/16 03:04:24;;;;;;;50.65;28.98;;;10.70;99.90;;;;;;10394769;28;20053;-79
2022/10/16 03:09:25;;;;;;;50.38;28.98;;;10.60;99.90;;;;;;10403304;28;20561;-79
2022/10/16 03:14:26;;;;;;;63.40;29.15;;;10.60;99.90;;;;;;10403468;28;20037;-79
2022/10/16 03:19:26;;;;;;;59.53;32.63;;;10.50;99.90;;;;;;10395980;28;20027;-79
2022/10/16 03:24:27;;;;;;;47.95;27.17;;;10.50;99.90;;;;;;10406541;28;20132;-83
2022/10/16 03:29:29;;;;;;;50.20;28.45;;;10.40;99.90;;;;;;10409366;28;20128;-79
2022/10/16 03:34:29;;;;;;;67.87;36.53;;;10.30;99.90;;;;;;10408101;28;20029;-79
2022/10/16 03:39:30;;;;;;;55.23;33.77;;;10.20;99.90;;;;;;10400894;28;20396;-80
2022/10/16 03:44:30;;;;;;;58.42;34.17;;;10.20;99.90;;;;;;10410267;28;20116;-79
2022/10/16 03:49:31;;;;;;;55.15;34.17;;;10.20;99.90;;;;;;10409635;28;20103;-82
2022/10/16 03:54:31;;;;;;;63.83;37.28;;;10.20;99.90;;;;;;10398619;28;20374;-80
2022/10/16 03:59:32;;;;;;;64.80;38.97;;;10.10;99.90;;;;;;10403590;28;20052;-80
2022/10/16 04:04:32;;;;;;;66.32;37.05;;;10.10;99.90;;;;;;10399957;28;20056;-82
2022/10/16 04:09:33;;;;;;;74.10;38.47;;;10.10;99.90;;;;;;10401305;28;20362;-79
2022/10/16 04:14:34;;;;;;;67.03;37.70;;;10.10;99.90;;;;;;10403150;28;20469;-81
2022/10/16 04:19:34;;;;;;;79.77;39.77;;;10.00;99.90;;;;;;10394925;28;20462;-78
2022/10/16 04:24:35;;;;;;;76.97;39.03;;;10.00;99.90;;;;;;10407297;28;20542;-80
2022/10/16 04:29:35;;;;;;;78.17;42.30;;;9.90;99.90;;;;;;10403420;28;20045;-79
2022/10/16 04:34:38;;;;;;;77.07;38.80;;;10.00;99.90;;;;;;10390512;28;20129;-78
2022/10/16 04:39:38;;;;;;;84.87;42.57;;;10.00;99.90;;;;;;10402599;28;20041;-78
2022/10/16 04:44:39;;;;;;;76.93;41.15;;;10.00;99.90;;;;;;10395430;28;20041;-79
2022/10/16 04:49:39;;;;;;;87.47;46.40;;;10.10;99.90;;;;;;10396087;28;20049;-80
2022/10/16 04:54:40;;;;;;;73.63;40.30;;;10.10;99.90;;;;;;10404430;28;20034;-77
2022/10/16 04:59:40;;;;;;;62.10;36.57;;;10.20;99.90;;;;;;10409033;28;20029;-80
2022/10/16 05:04:41;;;;;;;59.30;35.30;;;10.20;99.90;;;;;;10386441;28;20153;-80
2022/10/16 05:09:41;;;;;;;66.87;38.53;;;10.20;99.90;;;;;;10406761;28;20073;-79
2022/10/16 05:14:42;;;;;;;61.00;35.22;;;10.20;99.90;;;;;;10406650;28;20112;-79
2022/10/16 05:19:43;;;;;;;58.65;33.80;;;10.20;99.90;;;;;;10399530;28;20795;-78
2022/10/16 05:24:43;;;;;;;63.92;35.95;;;10.20;99.90;;;;;;10406371;28;20370;-78
2022/10/16 05:29:46;;;;;;;69.20;38.27;;;10.10;99.90;;;;;;10404592;28;20045;-79
2022/10/16 05:34:47;;;;;;;66.38;37.05;;;10.10;99.90;;;;;;10406949;28;20717;-80
2022/10/16 05:39:47;;;;;;;64.95;38.25;;;10.20;99.90;;;;;;10404878;28;20034;-80
2022/10/16 05:44:48;;;;;;;68.80;40.25;;;10.20;99.90;;;;;;10392210;28;20029;-80
2022/10/16 05:49:48;;;;;;;74.68;42.75;;;10.30;99.90;;;;;;10402079;28;20033;-79
2022/10/16 05:54:49;;;;;;;63.08;37.55;;;10.40;99.90;;;;;;10405858;28;20481;-79
2022/10/16 05:59:50;;;;;;;64.15;37.80;;;10.50;99.90;;;;;;10396870;28;20034;-78
2022/10/16 06:04:53;;;;;;;71.13;39.28;;;10.60;99.90;;;;;;10395478;28;20049;-80
2022/10/16 06:09:54;;;;;;;56.10;33.80;;;10.80;99.90;;;;;;10396429;28;20034;-78
2022/10/16 06:14:54;;;;;;;154.18;87.63;;;11.00;99.90;;;;;;10398126;28;20059;-82
2022/10/16 06:19:55;;;;;;;111.88;68.65;;;11.10;99.90;;;;;;10396625;28;20437;-80
2022/10/16 06:24:55;;;;;;;64.57;38.67;;;11.30;99.90;;;;;;10402339;28;20099;-79
2022/10/16 06:29:57;;;;;;;59.28;33.35;;;11.40;99.90;;;;;;10405322;28;20052;-79
2022/10/16 06:34:57;;;;;;;57.60;35.10;;;11.50;99.90;;;;;;10385904;28;20037;-78
2022/10/16 06:39:59;;;;;;;61.83;40.30;;;11.60;99.90;;;;;;10403364;28;20029;-79
2022/10/16 06:45:01;;;;;;;61.30;40.17;;;11.70;99.90;;;;;;10384178;28;20088;-78
2022/10/16 06:50:03;;;;;;;52.05;32.05;;;12.00;99.90;;;;;;10389394;28;20040;-79
2022/10/16 06:55:09;;;;;;;47.08;30.55;;;12.10;99.90;;;;;;10399519;28;20111;-81
2022/10/16 07:00:10;;;;;;;49.67;30.83;;;12.30;99.90;;;;;;10396213;28;20770;-80
2022/10/16 07:05:11;;;;;;;40.85;27.30;;;12.60;99.90;;;;;;10391507;28;20061;-79
2022/10/16 07:10:11;;;;;;;40.55;27.60;;;12.90;99.90;;;;;;10401742;28;20033;-79
2022/10/16 07:15:12;;;;;;;38.95;24.42;;;13.30;99.90;;;;;;10410301;28;20033;-82
2022/10/16 07:20:12;;;;;;;34.95;23.20;;;13.60;99.90;;;;;;10408993;28;20029;-80
2022/10/16 07:25:13;;;;;;;34.85;22.10;;;13.80;99.90;;;;;;10409540;28;20083;-80
2022/10/16 07:30:14;;;;;;;28.05;19.67;;;13.90;99.90;;;;;;10389439;28;20081;-79
2022/10/16 07:35:14;;;;;;;29.50;19.42;;;14.10;99.90;;;;;;10405712;28;20474;-83
2022/10/16 07:40:15;;;;;;;30.08;18.60;;;14.40;99.90;;;;;;10408540;28;20037;-79
2022/10/16 07:45:15;;;;;;;27.02;16.75;;;14.80;99.90;;;;;;10409298;28;20481;-79
2022/10/16 07:50:16;;;;;;;27.35;16.13;;;15.30;99.90;;;;;;10404019;28;20045;-82
2022/10/16 07:55:16;;;;;;;24.40;15.50;;;15.80;99.90;;;;;;10400291;28;20028;-79
2022/10/16 08:00:17;;;;;;;23.83;15.05;;;16.20;99.90;;;;;;10408578;28;20025;-82
2022/10/16 08:05:17;;;;;;;22.48;13.32;;;16.50;99.90;;;;;;10390326;28;20056;-82
2022/10/16 08:10:21;;;;;;;18.35;13.00;;;16.40;99.90;;;;;;10405589;28;20064;-81
2022/10/16 08:15:22;;;;;;;17.95;12.13;;;16.50;99.90;;;;;;10405075;28;20401;-79
2022/10/16 08:20:22;;;;;;;18.38;10.50;;;16.80;99.90;;;;;;10397668;28;20025;-78
2022/10/16 08:25:23;;;;;;;17.73;11.18;;;17.20;99.90;;;;;;10397471;28;20029;-79
2022/10/16 08:30:24;;;;;;;13.90;9.82;;;17.50;99.90;;;;;;10386882;28;20041;-81
2022/10/16 08:35:25;;;;;;;14.85;10.10;;;17.70;99.90;;;;;;10376385;28;20433;-78
2022/10/16 08:40:30;;;;;;;13.65;9.65;;;17.80;99.90;;;;;;10401254;28;20025;-78
2022/10/16 08:45:40;;;;;;;15.70;8.98;;;18.10;99.90;;;;;;10406825;28;20069;-82
2022/10/16 08:50:41;;;;;;;15.57;10.27;;;18.50;99.90;;;;;;10403244;28;20044;-78
2022/10/16 08:55:46;;;;;;;14.57;9.88;;;18.80;99.90;;;;;;10400077;28;20028;-78
2022/10/16 09:00:50;;;;;;;16.63;9.57;;;19.30;99.90;;;;;;10399671;28;20029;-78
2022/10/16 09:06:24;;;;;;;13.35;8.63;;;19.50;98.40;;;;;;10403819;28;20644;-80
2022/10/16 09:11:25;;;;;;;12.18;8.27;;;19.70;97.90;;;;;;10404307;28;20045;-79
2022/10/16 09:16:35;;;;;;;11.20;8.45;;;19.90;96.10;;;;;;10404797;28;20025;-78
2022/10/16 09:21:40;;;;;;;10.80;8.35;;;19.90;94.70;;;;;;10405648;28;20041;-79
2022/10/16 09:26:41;;;;;;;12.23;8.25;;;19.80;93.90;;;;;;10398345;28;20049;-78
2022/10/16 09:31:43;;;;;;;14.27;8.80;;;19.60;93.80;;;;;;10406317;28;20047;-77
2022/10/16 09:36:45;;;;;;;10.13;7.82;;;19.40;94.30;;;;;;10393472;28;20402;-78
2022/10/16 09:41:46;;;;;;;15.70;9.20;;;19.20;94.30;;;;;;10404857;28;20033;-81
2022/10/16 09:46:47;;;;;;;11.75;8.60;;;19.00;94.40;;;;;;10394230;28;20029;-78
2022/10/16 09:51:47;;;;;;;13.40;8.63;;;18.70;94.80;;;;;;10404223;28;20395;-83
2022/10/16 09:56:51;;;;;;;14.27;9.35;;;18.60;95.60;;;;;;10405972;28;20029;-79
2022/10/16 10:01:54;;;;;;;16.77;8.68;;;18.70;96.00;;;;;;10404748;28;20025;-79
2022/10/16 10:06:56;;;;;;;12.48;8.95;;;18.70;95.90;;;;;;10389552;28;20052;-82
2022/10/16 10:12:17;;;;;;;15.27;9.85;;;18.70;97.10;;;;;;10405430;28;20568;-78
2022/10/16 10:17:21;;;;;;;13.88;8.75;;;18.60;96.40;;;;;;10402756;28;20065;-78
2022/10/16 10:22:24;;;;;;;12.65;9.00;;;18.60;97.00;;;;;;10400980;28;20036;-78
2022/10/16 10:27:37;;;;;;;13.68;9.50;;;18.50;97.30;;;;;;10399619;28;20035;-79
2022/10/16 10:33:05;;;;;;;14.30;9.25;;;18.50;98.40;;;;;;10393970;28;20060;-81
2022/10/16 10:38:15;;;;;;;11.10;7.80;;;18.40;99.00;;;;;;10400355;28;20317;-78
2022/10/16 10:43:30;;;;;;;13.23;9.68;;;18.50;99.90;;;;;;10402763;28;20040;-77
2022/10/16 10:49:22;;;;;;;13.03;8.80;;;18.50;99.90;;;;;;10378805;28;20068;-76
2022/10/16 10:54:35;;;;;;;11.38;8.20;;;18.60;99.90;;;;;;10364435;28;20396;-77
2022/10/16 11:00:09;;;;;;;14.18;7.93;;;18.60;99.90;;;;;;10384825;28;20034;-78
2022/10/16 11:05:40;;;;;;;12.25;8.38;;;18.70;99.90;;;;;;10389556;28;20054;-76
2022/10/16 11:10:58;;;;;;;12.07;7.85;;;18.80;99.80;;;;;;10390192;28;20058;-77
2022/10/16 11:16:06;;;;;;;13.25;8.10;;;18.90;99.10;;;;;;10395124;28;20034;-76
2022/10/16 11:21:12;;;;;;;10.77;7.78;;;19.00;99.50;;;;;;10397169;28;20544;-76
2022/10/16 11:26:30;;;;;;;12.05;7.70;;;19.20;98.40;;;;;;10396460;28;20022;-75
2022/10/16 11:31:49;;;;;;;10.10;7.53;;;19.20;97.60;;;;;;10398138;28;20045;-76
2022/10/16 11:37:11;;;;;;;13.07;7.65;;;19.40;98.50;;;;;;10391736;28;20045;-76
2022/10/16 11:42:20;;;;;;;10.70;8.15;;;19.50;98.10;;;;;;10396333;28;20040;-76
2022/10/16 11:47:39;;;;;;;12.13;7.53;;;19.70;97.90;;;;;;10404047;28;20040;-77
2022/10/16 11:52:42;;;;;;;15.18;8.20;;;20.10;97.60;;;;;;10398125;28;20129;-76
2022/10/16 11:57:51;;;;;;;11.48;7.57;;;20.60;94.80;;;;;;10406557;28;20041;-75
2022/10/16 12:03:10;;;;;;;12.65;6.70;;;21.00;93.80;;;;;;10393202;28;20481;-76
2022/10/16 12:08:13;;;;;;;11.45;7.10;;;21.30;91.80;;;;;;10396656;28;20049;-78
2022/10/16 12:13:39;;;;;;;11.10;6.78;;;21.50;91.80;;;;;;10407502;28;20042;-79
2022/10/16 12:18:41;;;;;;;10.15;6.65;;;21.60;90.10;;;;;;10404694;28;20084;-79
2022/10/16 12:23:50;;;;;;;9.32;6.82;;;21.20;90.00;;;;;;10408647;28;20087;-76
2022/10/16 12:28:51;;;;;;;11.98;7.88;;;20.80;90.30;;;;;;10405736;28;20037;-77
2022/10/16 12:33:59;;;;;;;13.98;8.00;;;20.40;91.50;;;;;;10395703;28;20487;-75
2022/10/16 12:39:00;;;;;;;12.65;7.88;;;20.30;91.80;;;;;;10400194;28;20044;-75
2022/10/16 12:44:02;;;;;;;12.02;7.93;;;20.20;91.70;;;;;;10402686;28;20044;-75
2022/10/16 12:49:11;;;;;;;14.07;8.25;;;20.10;91.80;;;;;;10408166;28;20068;-76
2022/10/16 12:54:34;;;;;;;13.60;8.90;;;19.90;92.30;;;;;;10398940;28;20344;-76
2022/10/16 12:59:42;;;;;;;14.02;8.95;;;19.80;93.00;;;;;;10404357;28;20421;-74
2022/10/16 13:05:02;;;;;;;16.15;9.40;;;20.10;92.70;;;;;;10392750;28;20405;-76
2022/10/16 13:10:15;;;;;;;17.42;9.20;;;20.20;92.50;;;;;;10393543;28;20396;-77
2022/10/16 13:15:39;;;;;;;13.90;9.25;;;19.90;92.80;;;;;;10403563;28;20029;-80
2022/10/16 13:21:17;;;;;;;17.42;9.35;;;19.90;93.40;;;;;;10394835;28;20531;-77
2022/10/16 13:26:44;;;;;;;15.18;9.82;;;19.80;93.90;;;;;;10404737;28;20045;-77
2022/10/16 13:31:45;;;;;;;14.27;9.57;;;19.90;95.00;;;;;;10388252;28;20052;-75
2022/10/16 13:36:52;;;;;;;15.65;9.55;;;20.10;94.60;;;;;;10388677;28;20030;-76
2022/10/16 13:42:05;;;;;;;17.17;9.48;;;20.30;94.10;;;;;;10405271;28;20076;-76
2022/10/16 13:47:05;;;;;;;16.23;9.73;;;20.30;94.20;;;;;;10383405;28;20508;-75
2022/10/16 13:52:16;;;;;;;15.57;10.00;;;20.30;93.40;;;;;;10388137;28;20045;-79
2022/10/16 13:57:17;;;;;;;14.82;9.80;;;20.00;93.20;;;;;;10398949;28;20056;-75
2022/10/16 14:02:34;;;;;;;13.80;9.98;;;19.90;94.10;;;;;;10389998;28;20105;-75
2022/10/16 14:07:35;;;;;;;16.85;9.07;;;20.00;94.40;;;;;;10394417;28;20046;-76
2022/10/16 14:12:36;;;;;;;14.63;9.07;;;20.00;94.10;;;;;;10384723;28;20033;-75
2022/10/16 14:17:43;;;;;;;15.45;9.88;;;20.00;93.80;;;;;;10404679;28;20033;-75
2022/10/16 14:22:45;;;;;;;16.00;9.68;;;19.90;94.00;;;;;;10395501;28;20428;-76
2022/10/16 14:28:03;;;;;;;14.50;8.98;;;19.60;94.40;;;;;;10401063;28;20065;-75
2022/10/16 14:33:19;;;;;;;15.45;9.02;;;19.30;95.10;;;;;;10385694;28;20048;-75
2022/10/16 14:38:20;;;;;;;15.18;9.20;;;19.10;96.00;;;;;;10402056;28;20028;-75
2022/10/16 14:43:26;;;;;;;13.80;9.10;;;19.20;96.50;;;;;;10390860;28;20405;-76
2022/10/16 14:48:27;;;;;;;14.02;8.77;;;19.40;96.70;;;;;;10394130;28;20501;-75
2022/10/16 14:53:27;;;;;;;12.30;8.65;;;19.50;95.80;;;;;;10387783;28;20049;-75
2022/10/16 14:58:28;;;;;;;14.82;9.68;;;19.70;95.40;;;;;;10404531;28;20013;-76
2022/10/16 15:03:28;;;;;;;13.65;9.13;;;19.60;94.70;;;;;;10403975;28;20030;-78
2022/10/16 15:08:29;;;;;;;14.93;9.65;;;19.40;94.60;;;;;;10394073;28;20737;-78
2022/10/16 15:13:30;;;;;;;13.55;8.65;;;19.10;95.00;;;;;;10388570;28;20037;-75
2022/10/16 15:18:31;;;;;;;12.77;9.15;;;18.90;95.60;;;;;;10408430;28;20074;-75
2022/10/16 15:23:31;;;;;;;16.55;10.93;;;18.70;95.90;;;;;;10395252;28;20121;-76
2022/10/16 15:28:32;;;;;;;14.50;10.50;;;18.50;96.90;;;;;;10407444;28;20112;-75
2022/10/16 15:33:34;;;;;;;18.42;11.27;;;18.40;98.00;;;;;;10403034;28;20133;-76
2022/10/16 15:38:35;;;;;;;19.98;11.95;;;18.30;98.60;;;;;;10402974;28;20064;-75
2022/10/16 15:43:35;;;;;;;21.33;12.60;;;18.20;99.10;;;;;;10409836;28;20025;-79
2022/10/16 15:48:36;;;;;;;20.38;13.05;;;18.00;99.90;;;;;;10400568;28;20523;-79
2022/10/16 15:53:37;;;;;;;19.15;12.77;;;18.00;99.90;;;;;;10395289;28;20561;-77
2022/10/16 15:58:37;;;;;;;17.23;12.00;;;17.90;99.90;;;;;;10403612;28;20025;-74
2022/10/16 16:03:41;;;;;;;20.33;12.52;;;17.80;99.90;;;;;;10399116;28;20036;-76
2022/10/16 16:08:42;;;;;;;24.95;15.23;;;17.70;99.90;;;;;;10398274;28;20829;-76
2022/10/16 16:13:43;;;;;;;38.03;23.63;;;17.50;99.90;;;;;;10402471;28;20033;-75
2022/10/16 16:18:44;;;;;;;48.28;26.95;;;17.30;99.90;;;;;;10398594;28;20120;-76
2022/10/16 16:23:44;;;;;;;31.27;15.57;;;17.20;99.90;;;;;;10399547;28;20088;-76
2022/10/16 16:28:45;;;;;;;26.92;16.55;;;17.10;99.90;;;;;;10407919;28;20791;-76
2022/10/16 16:33:45;;;;;;;28.02;16.88;;;16.90;99.90;;;;;;10391001;28;20061;-78
2022/10/16 16:38:46;;;;;;;28.55;17.52;;;16.90;99.90;;;;;;10391753;28;20053;-76
2022/10/16 16:43:47;;;;;;;29.17;16.10;;;16.70;99.90;;;;;;10403607;28;20033;-76
2022/10/16 16:48:50;;;;;;;23.55;15.05;;;16.50;99.90;;;;;;10401603;28;20389;-76
2022/10/16 16:53:54;;;;;;;27.15;16.27;;;16.40;99.90;;;;;;10403227;28;20029;-76
2022/10/16 16:58:56;;;;;;;31.80;17.90;;;16.40;99.90;;;;;;10391979;28;20393;-76
2022/10/16 17:03:58;;;;;;;31.95;18.80;;;16.30;99.90;;;;;;10393466;28;20113;-76
2022/10/16 17:09:00;;;;;;;28.85;16.20;;;16.20;99.90;;;;;;10399348;28;20040;-78
2022/10/16 17:14:02;;;;;;;38.42;23.23;;;16.20;99.90;;;;;;10399308;28;20037;-75
2022/10/16 17:19:05;;;;;;;36.95;24.92;;;16.20;99.90;;;;;;10396523;28;20533;-79
2022/10/16 17:24:06;;;;;;;43.50;32.33;;;16.10;99.90;;;;;;10401890;28;20034;-79
2022/10/16 17:29:10;;;;;;;27.08;17.73;;;16.00;99.90;;;;;;10402082;28;20037;-76
2022/10/16 17:34:11;;;;;;;26.33;16.15;;;16.00;99.90;;;;;;10399126;28;20079;-77
2022/10/16 17:39:17;;;;;;;24.48;15.07;;;16.00;99.90;;;;;;10398746;28;20033;-78
2022/10/16 17:44:20;;;;;;;26.55;16.42;;;16.00;99.90;;;;;;10404939;28;20041;-82
2022/10/16 17:49:21;;;;;;;30.10;18.13;;;15.90;99.90;;;;;;10390493;28;20034;-77
2022/10/16 17:54:21;;;;;;;33.28;20.80;;;15.80;99.90;;;;;;10399773;28;20032;-79
2022/10/16 17:59:22;;;;;;;37.33;21.58;;;15.80;99.90;;;;;;10394142;28;20088;-77
2022/10/16 18:04:22;;;;;;;35.85;22.52;;;15.70;99.90;;;;;;10385451;28;20405;-75
2022/10/16 18:09:23;;;;;;;37.88;22.80;;;15.60;99.90;;;;;;10398226;28;20025;-77
2022/10/16 18:14:24;;;;;;;41.75;24.25;;;15.50;99.90;;;;;;10393502;28;20091;-78
2022/10/16 18:19:25;;;;;;;40.88;25.30;;;15.40;99.90;;;;;;10401174;28;20033;-79
2022/10/16 18:24:26;;;;;;;39.20;24.30;;;15.30;99.90;;;;;;10397618;28;20435;-77
2022/10/16 18:29:27;;;;;;;39.83;25.35;;;15.20;99.90;;;;;;10401518;28;20116;-80
2022/10/16 18:34:27;;;;;;;44.00;28.33;;;15.10;99.90;;;;;;10381733;28;20053;-77
2022/10/16 18:39:28;;;;;;;45.88;26.98;;;14.90;99.90;;;;;;10390064;28;20017;-78
2022/10/16 18:44:30;;;;;;;48.80;28.77;;;14.60;99.90;;;;;;10404323;28;20030;-76
2022/10/16 18:49:30;;;;;;;48.13;27.88;;;14.30;99.90;;;;;;10388486;28;20107;-77
2022/10/16 18:54:31;;;;;;;47.40;27.48;;;14.20;99.90;;;;;;10403755;28;20102;-76
2022/10/16 18:59:31;;;;;;;54.90;31.80;;;14.00;99.90;;;;;;10411289;28;20028;-78
2022/10/16 19:04:32;;;;;;;45.88;26.67;;;13.90;99.90;;;;;;10410205;28;20700;-76
2022/10/16 19:09:32;;;;;;;41.67;25.00;;;14.00;99.90;;;;;;10413571;28;20038;-76
2022/10/16 19:14:33;;;;;;;45.47;26.25;;;14.10;99.90;;;;;;10410208;28;20037;-77
2022/10/16 19:19:34;;;;;;;51.92;30.33;;;14.30;99.90;;;;;;10408467;28;20212;-78
2022/10/16 19:24:34;;;;;;;48.33;26.55;;;14.40;99.90;;;;;;10410312;28;20116;-77
2022/10/16 19:29:35;;;;;;;45.17;27.52;;;14.50;99.90;;;;;;10411055;28;20044;-78
2022/10/16 19:34:36;;;;;;;39.58;24.70;;;14.60;99.90;;;;;;10409877;28;20044;-79
2022/10/16 19:39:36;;;;;;;42.38;24.55;;;14.60;99.90;;;;;;10403649;28;20033;-75
2022/10/16 19:44:37;;;;;;;42.70;24.98;;;14.70;99.90;;;;;;10411189;28;20029;-76
2022/10/16 19:49:38;;;;;;;41.03;23.77;;;14.80;99.90;;;;;;10405541;28;20146;-77
2022/10/16 19:54:38;;;;;;;34.35;21.55;;;14.80;99.90;;;;;;10401561;28;20029;-76
2022/10/16 19:59:39;;;;;;;36.92;22.30;;;14.80;99.90;;;;;;10408000;28;20105;-80
2022/10/16 20:04:39;;;;;;;33.35;21.67;;;14.80;99.90;;;;;;10405071;28;20115;-79
2022/10/16 20:09:40;;;;;;;37.03;23.20;;;14.70;99.90;;;;;;10410353;28;20041;-79
2022/10/16 20:14:40;;;;;;;42.30;25.38;;;14.60;99.90;;;;;;10408861;28;20037;-78
2022/10/16 20:19:41;;;;;;;38.25;24.48;;;14.30;99.90;;;;;;10381262;28;20655;-79
2022/10/16 20:24:41;;;;;;;47.90;26.83;;;14.10;99.90;;;;;;10409290;28;20094;-77
2022/10/16 20:29:42;;;;;;;51.28;29.70;;;13.80;99.90;;;;;;10405511;28;20050;-76
2022/10/16 20:34:47;;;;;;;52.47;31.55;;;13.50;99.90;;;;;;10408399;28;20041;-76
2022/10/16 20:39:48;;;;;;;52.58;28.98;;;13.30;99.90;;;;;;10408657;28;20033;-80
2022/10/16 20:44:49;;;;;;;40.22;25.23;;;13.40;99.90;;;;;;10407133;28;20655;-80
2022/10/16 20:49:51;;;;;;;39.92;23.63;;;13.60;99.90;;;;;;10395801;28;20037;-77
2022/10/16 20:54:51;;;;;;;61.97;34.03;;;13.70;99.90;;;;;;10408291;28;20032;-76
2022/10/16 20:59:54;;;;;;;62.70;35.88;;;13.80;99.90;;;;;;10407250;28;20044;-77
2022/10/16 21:04:54;;;;;;;47.45;30.20;;;13.90;99.90;;;;;;10403607;28;20130;-76
2022/10/16 21:09:56;;;;;;;47.38;29.13;;;13.90;99.90;;;;;;10407751;28;20194;-77
2022/10/16 21:14:56;;;;;;;55.30;32.75;;;13.90;99.90;;;;;;10388266;28;20140;-77
2022/10/16 21:19:57;;;;;;;59.42;36.00;;;13.90;99.90;;;;;;10395405;28;20392;-80
2022/10/16 21:24:58;;;;;;;58.95;36.25;;;13.90;99.90;;;;;;10407138;28;20033;-78
2022/10/16 21:29:58;;;;;;;51.65;33.78;;;13.80;99.90;;;;;;10392377;28;20120;-77
2022/10/16 21:34:59;;;;;;;82.93;46.30;;;13.80;99.90;;;;;;10388322;28;20148;-76
2022/10/16 21:39:59;;;;;;;74.95;45.35;;;13.70;99.90;;;;;;10406485;28;20029;-78
2022/10/16 21:45:00;;;;;;;66.45;43.63;;;13.60;99.90;;;;;;10399412;28;20030;-80
2022/10/16 21:50:00;;;;;;;60.95;38.55;;;13.50;99.90;;;;;;10397439;28;20041;-76
2022/10/16 21:55:01;;;;;;;61.20;36.85;;;13.30;99.90;;;;;;10379493;28;20046;-79
2022/10/16 22:00:03;;;;;;;58.45;37.17;;;13.10;99.90;;;;;;10405737;28;20351;-77
2022/10/16 22:05:04;;;;;;;60.35;37.65;;;12.90;99.90;;;;;;10399781;28;20122;-78
2022/10/16 22:10:05;;;;;;;67.68;41.30;;;12.70;99.90;;;;;;10404142;28;20045;-76
2022/10/16 22:15:06;;;;;;;67.95;40.70;;;12.50;99.90;;;;;;10397198;28;20036;-79
2022/10/16 22:20:07;;;;;;;62.80;38.03;;;12.30;99.90;;;;;;10397604;28;20100;-76
2022/10/16 22:25:08;;;;;;;57.53;33.28;;;12.20;99.90;;;;;;10396874;28;20032;-77
2022/10/16 22:30:09;;;;;;;60.97;36.30;;;12.10;99.90;;;;;;10403528;28;20037;-76
2022/10/16 22:35:10;;;;;;;70.55;39.10;;;12.10;99.90;;;;;;10400175;28;20041;-77
2022/10/16 22:40:11;;;;;;;55.78;32.92;;;12.10;99.90;;;;;;10402016;28;20025;-76
2022/10/16 22:45:11;;;;;;;45.45;29.63;;;12.10;99.90;;;;;;10400257;28;20021;-77
2022/10/16 22:50:12;;;;;;;50.10;29.17;;;12.00;99.90;;;;;;10390002;28;20044;-76
2022/10/16 22:55:13;;;;;;;56.97;32.60;;;12.00;99.90;;;;;;10386181;28;20060;-76
2022/10/16 23:00:16;;;;;;;53.08;32.33;;;11.90;99.90;;;;;;10402400;28;20033;-77
2022/10/16 23:05:17;;;;;;;52.33;31.00;;;11.80;99.90;;;;;;10401478;28;20095;-77
2022/10/16 23:10:18;;;;;;;50.58;30.25;;;11.80;99.90;;;;;;10401322;28;20439;-77
2022/10/16 23:15:18;;;;;;;53.58;31.73;;;11.80;99.90;;;;;;10403777;28;20025;-78
2022/10/16 23:20:19;;;;;;;55.97;32.15;;;11.70;99.90;;;;;;10397107;28;20032;-78
2022/10/16 23:25:19;;;;;;;60.35;32.38;;;11.60;99.90;;;;;;10403820;28;20810;-76
2022/10/16 23:30:20;;;;;;;53.17;31.73;;;11.60;99.90;;;;;;10402062;28;20808;-79
2022/10/16 23:35:20;;;;;;;56.13;33.08;;;11.50;99.90;;;;;;10400056;28;20034;-78
2022/10/16 23:40:21;;;;;;;55.70;30.55;;;11.50;99.90;;;;;;10409991;28;20024;-77
2022/10/16 23:45:21;;;;;;;57.42;32.17;;;11.50;99.90;;;;;;10403702;28;20026;-77
2022/10/16 23:50:22;;;;;;;53.50;30.85;;;11.50;99.90;;;;;;10410640;28;20048;-79
2022/10/16 23:55:22;;;;;;;63.95;33.53;;;11.50;99.90;;;;;;10405589;28;20038;-74
